Hovedside
METAR-TAF:

METAR-TAF

Lufthavner :

Ljungbyhed, Sverige

breddegrad: 56-04N, lengdegrad: 013-12E, høyde over havet: 43 m

Gjeldene værobservasjon

Denne rapporten ble laget for 33 minutter siden, klokken 04:20 UTC
Vind 4 kt fra Øst
Temperatur 8°C
Luftfuktighet 100%
Trykk 1016 hPa
Sikt: 8000 m
dis

METAR: ESTL 160420Z AUTO 10004KT 8000 BR ///////// 08/08 Q1016

Tid: 06:53 (04:53 UTC)

Varsel

Denne rapporten ble laget for 17 timer og 53 minutter siden, klokken 11:00 UTC
Varsel gyldig fra 15. klokken 12 UTC til 15. klokken 15 UTC
Vind 8 kt fra Sørøst
Sikt 10 km eller mer
ingen skyer under 1500 m og ingen bygeskyer

TAF: ESTL 151100Z 1512/1515 14008KT CAVOK

Værobservasjoner og værvarsel for over 4000 flyplasser (METAR- og TAF-rapporter).

Tilgjengelige stasjoner er representert av de røde og gule prikkene på kartet.

Hold musepekeren over prikken for å se navnet på stasjonen.

Klikk så for å se værobservasjoner og -varsler.

For å forandre kartet kan du klikke på den grønne knappen med svart kryss for å zoome inn, på den grønne knappen med strek for å zoome ut, eller på de grønne pilene for å se tilstøtende kart.


METAR-TAF: